Record high temperature 37.4°C Record low temperature -14.6°C Record high gust 68.5 km/h Record high average 47.2 km/h Record daily rain 55.3 mm Record low windchill -17.5°C Record high barometer 1045.0 hPa Record low barometer 970.0 hPa
Daily high pressure 1018.0 hPa Daily low pressure 1016.0 hPa Daily low windchill -1.8°C Daily high heat index 6.2°C Daily high gust speed 37.7 kmh S Daily high average speed 24.8 kmh SSW

This page is updated from recent data collected by a WMR200 weather station Use the Reload or Refresh facility on your browser to retrieve the latest data.

Status report of weather station: Bienvenue sur la Station Météo de Godarville



Weather report/warning/Metars

Alexandroupoli Airport , Greece (LGAL) 40-51N 025-55E 3M
Dec 17, 2017 - 11:50 PM EST / 2017.12.18 0450 UTC
Wind: from the ENE (070 degrees) at 13 MPH (11 KT):0
Visibility: greater than 7 mile(s):0
Sky conditions: mostly clear
Temperature: 42 F (6 C)
Dew Point: 37 F (3 C)
Relative Humidity: 81%
Pressure (altimeter): 30.03 in. Hg (1017 hPa)
ob: LGAL 180450Z 07011KT 9999 FEW025 06/03 Q1017
cycle: 5

Charleroi / Gosselies, Belgium (EBCI) 50-28N 004-27E 192M
Dec 17, 2017 - 11:50 PM EST / 2017.12.18 0450 UTC
Wind: from the NW (320 degrees) at 9 MPH (8 KT) (direction variable):0
Visibility: 5 mile(s):0
Sky conditions: mostly cloudy
Temperature: 42 F (6 C)
Dew Point: 41 F (5 C)
Relative Humidity: 93%
Pressure (altimeter): 30.06 in. Hg (1018 hPa)
ob: EBCI 180450Z 32008KT 290V360 9000 SCT007 BKN013 06/05 Q1018 NOSIG
cycle: 5

Bruxelles National, Belgium (EBBR) 50-54N 004-32E 58M
Dec 17, 2017 - 11:50 PM EST / 2017.12.18 0450 UTC
Wind: from the NW (320 degrees) at 12 MPH (10 KT):0
Visibility: greater than 7 mile(s):0
Sky conditions: mostly cloudy
Temperature: 42 F (6 C)
Dew Point: 39 F (4 C)
Relative Humidity: 86%
Pressure (altimeter): 30.09 in. Hg (1019 hPa)
ob: EBBR 180450Z 32010KT 9999 SCT013 BKN020 06/04 Q1019 NOSIG
cycle: 5

Koksijde, Belgium (EBFN) 51-05N 002-39E 9M
Dec 17, 2017 - 11:55 PM EST / 2017.12.18 0455 UTC
Wind: from the N (010 degrees) at 15 MPH (13 KT):0
Visibility: 4 mile(s):0
Sky conditions: mostly cloudy
Weather: light rain
Temperature: 42 F (6 C)
Dew Point: 41 F (5 C)
Relative Humidity: 93%
Pressure (altimeter): 30.15 in. Hg (1021 hPa)
ob: EBFN 180455Z 01013KT 8000 -RA SCT023 BKN034 06/05 Q1021 WHT WHT TEMPO BLU
cycle: 5

Poznan, Poland (EPPO) 52-25N 016-50E 92M
Dec 18, 2017 - 12:00 AM EST / 2017.12.18 0500 UTC
Wind: from the S (170 degrees) at 2 MPH (2 KT):0
Visibility: 1 mile(s):0
Sky conditions: overcast
Weather: mist
Temperature: 30 F (-1 C)
Dew Point: 30 F (-1 C)
Relative Humidity: 100%
Pressure (altimeter): 30.24 in. Hg (1024 hPa)
ob: EPPO 180500Z 17002KT 1800 BR FEW001 OVC035 M01/M01 Q1024 R10/290095 
cycle: 5



Coucher du Soleil:
16:39:20

Lever de Lune:
07:30:47 17/12/17

Coucher de Lune:
16:31:11 17/12/17

Premier Quartier 26 novembre 2017
Pleine Lune 3 décembre 2017
Dernier Quartier 10 décembre 2017
Nouvelle Lune 18 décembre 2017
Âge de lune : 29 jours,6 heures,10 minutes,0%
Les heures du jour possible étaient aujourd’hui 08:01